createdAt,value
2023-04-07T00:00:48.945Z,46.80
2023-04-07T00:03:23.796Z,46.80
2023-04-07T00:05:52.802Z,46.90
2023-04-07T00:08:22.079Z,47.00
2023-04-07T00:10:50.903Z,46.90
2023-04-07T00:13:19.901Z,46.70
2023-04-07T00:15:49.315Z,46.70
2023-04-07T00:18:18.382Z,46.70
2023-04-07T00:20:48.535Z,46.80
2023-04-07T00:23:17.538Z,47.20
2023-04-07T00:25:46.464Z,47.10
2023-04-07T00:28:15.661Z,47.20
2023-04-07T00:30:44.371Z,47.30
2023-04-07T00:33:13.526Z,47.10
2023-04-07T00:35:42.302Z,48.80
2023-04-07T00:38:13.205Z,48.00
2023-04-07T00:40:42.017Z,47.70
2023-04-07T00:43:11.296Z,47.30
2023-04-07T00:45:40.071Z,47.40
2023-04-07T00:48:09.270Z,47.30
2023-04-07T00:50:38.278Z,47.60
2023-04-07T00:53:08.153Z,47.70
2023-04-07T00:55:38.507Z,47.60
2023-04-07T00:58:07.584Z,47.60
2023-04-07T01:00:44.158Z,47.80
2023-04-07T01:03:21.904Z,47.80
2023-04-07T01:05:59.890Z,47.60
2023-04-07T01:08:43.790Z,47.50
2023-04-07T01:11:24.630Z,47.40
2023-04-07T01:13:56.588Z,47.30
2023-04-07T01:16:53.722Z,47.50
2023-04-07T01:19:37.981Z,47.50
2023-04-07T01:22:15.251Z,47.40
2023-04-07T01:25:18.463Z,47.40
2023-04-07T01:28:10.100Z,47.40
2023-04-07T01:30:44.394Z,47.30
2023-04-07T01:33:15.878Z,47.40
2023-04-07T01:35:48.226Z,47.50
2023-04-07T01:38:18.429Z,47.40
2023-04-07T01:40:50.802Z,47.50
2023-04-07T01:43:21.523Z,47.50
2023-04-07T01:45:52.717Z,47.60
2023-04-07T01:48:22.187Z,47.40
2023-04-07T01:50:52.895Z,47.50
2023-04-07T01:53:22.308Z,47.50
2023-04-07T01:55:53.687Z,47.60
2023-04-07T01:58:23.145Z,47.60
2023-04-07T02:00:53.920Z,47.60
2023-04-07T02:03:33.209Z,47.60
2023-04-07T02:06:09.180Z,47.80
2023-04-07T02:08:43.670Z,47.80
2023-04-07T02:11:14.456Z,47.80
2023-04-07T02:13:45.804Z,47.70
2023-04-07T02:16:18.952Z,47.60
2023-04-07T02:18:49.092Z,47.80
2023-04-07T02:21:20.253Z,47.70
2023-04-07T02:23:49.008Z,47.70
2023-04-07T02:26:18.154Z,47.70
2023-04-07T02:28:46.855Z,47.60
2023-04-07T02:31:17.290Z,47.80
2023-04-07T02:33:46.326Z,47.70
2023-04-07T02:36:15.410Z,47.60
2023-04-07T02:38:44.203Z,47.70
2023-04-07T02:41:13.239Z,47.70
2023-04-07T02:43:42.028Z,47.90
2023-04-07T02:46:11.959Z,47.80
2023-04-07T02:48:42.579Z,47.70
2023-04-07T02:51:12.300Z,47.70
2023-04-07T02:53:41.142Z,47.70
2023-04-07T02:56:10.338Z,47.80
2023-04-07T02:58:39.360Z,47.90
2023-04-07T03:01:08.638Z,47.80
2023-04-07T03:03:39.550Z,47.80
2023-04-07T03:06:23.578Z,47.80
2023-04-07T03:09:02.601Z,47.70
2023-04-07T03:11:31.727Z,47.90
2023-04-07T03:14:02.042Z,47.90
2023-04-07T03:16:33.765Z,47.90
2023-04-07T03:19:08.010Z,47.90
2023-04-07T03:21:42.836Z,47.90
2023-04-07T03:24:11.858Z,48.00
2023-04-07T03:26:41.157Z,47.80
2023-04-07T03:29:20.300Z,48.10
2023-04-07T03:31:49.625Z,47.70
2023-04-07T03:34:21.948Z,47.90
2023-04-07T03:36:52.733Z,47.90
2023-04-07T03:39:21.634Z,48.00
2023-04-07T03:41:52.825Z,47.90
2023-04-07T03:44:21.826Z,47.90
2023-04-07T03:46:51.247Z,48.00
2023-04-07T03:49:21.320Z,47.90
2023-04-07T03:51:53.637Z,48.00
2023-04-07T03:54:22.560Z,47.90
2023-04-07T03:56:51.752Z,47.80
2023-04-07T03:59:25.224Z,48.00
2023-04-07T04:02:04.386Z,47.80
2023-04-07T04:04:33.799Z,48.00
2023-04-07T04:07:04.874Z,48.00
2023-04-07T04:09:42.104Z,47.70
2023-04-07T04:12:11.415Z,48.00
2023-04-07T04:14:47.052Z,48.70
2023-04-07T04:17:17.442Z,48.00
2023-04-07T04:19:48.627Z,47.90
2023-04-07T04:22:30.312Z,47.90
2023-04-07T04:25:01.231Z,48.00
2023-04-07T04:27:30.673Z,48.20
2023-04-07T04:30:08.118Z,48.20
2023-04-07T04:32:46.776Z,48.20
2023-04-07T04:35:17.263Z,48.40
2023-04-07T04:37:58.397Z,48.40
2023-04-07T04:40:27.858Z,48.40
2023-04-07T04:42:57.002Z,48.40
2023-04-07T04:45:27.105Z,48.30
2023-04-07T04:47:56.642Z,48.40
2023-04-07T04:50:25.472Z,48.10
2023-04-07T04:52:55.391Z,48.30
2023-04-07T04:55:27.103Z,48.20
2023-04-07T04:57:56.992Z,48.10
2023-04-07T05:00:35.840Z,48.10
2023-04-07T05:03:08.847Z,48.10
2023-04-07T05:05:41.468Z,48.10
2023-04-07T05:08:12.623Z,48.10
2023-04-07T05:10:44.869Z,48.40
2023-04-07T05:13:16.654Z,48.40
2023-04-07T05:15:45.619Z,48.30
2023-04-07T05:18:16.144Z,52.20
2023-04-07T05:20:46.244Z,50.00
2023-04-07T05:23:15.338Z,50.00
2023-04-07T05:25:47.150Z,50.20
2023-04-07T05:28:16.238Z,50.00
2023-04-07T05:30:45.404Z,50.00
2023-04-07T05:33:14.607Z,49.60
2023-04-07T05:35:50.145Z,49.70
2023-04-07T05:38:19.307Z,49.20
2023-04-07T05:40:49.605Z,49.40
2023-04-07T05:43:29.035Z,49.10
2023-04-07T05:45:58.716Z,49.00
2023-04-07T05:48:27.852Z,49.20
2023-04-07T05:50:57.674Z,49.00
2023-04-07T05:53:27.332Z,48.90
2023-04-07T05:55:57.838Z,48.60
2023-04-07T05:58:41.179Z,48.90
2023-04-07T06:01:11.563Z,48.70
2023-04-07T06:03:41.377Z,48.80
2023-04-07T06:06:31.445Z,49.20
2023-04-07T06:09:00.891Z,49.10
2023-04-07T06:11:31.039Z,49.20
2023-04-07T06:14:01.180Z,49.00
2023-04-07T06:16:30.039Z,49.10
2023-04-07T06:19:00.218Z,49.30
2023-04-07T06:21:31.620Z,49.30
2023-04-07T06:24:00.743Z,49.20
2023-04-07T06:26:31.895Z,49.00
2023-04-07T06:29:01.724Z,49.20
2023-04-07T06:31:30.564Z,49.10
2023-04-07T06:33:59.617Z,49.10
2023-04-07T06:36:29.143Z,49.40
2023-04-07T06:38:58.310Z,49.90
2023-04-07T06:41:27.283Z,49.50
2023-04-07T06:43:57.763Z,49.00
2023-04-07T06:46:26.794Z,49.20
2023-04-07T06:48:56.072Z,49.00
2023-04-07T06:51:24.868Z,49.10
2023-04-07T06:53:53.810Z,48.90
2023-04-07T06:56:25.068Z,48.80
2023-04-07T06:58:54.349Z,49.10
2023-04-07T07:01:24.403Z,49.30
2023-04-07T07:03:53.826Z,49.20
2023-04-07T07:06:22.900Z,49.20
2023-04-07T07:08:52.100Z,49.30
2023-04-07T07:11:20.953Z,49.30
2023-04-07T07:13:50.307Z,49.30
2023-04-07T07:16:19.333Z,49.60
2023-04-07T07:18:49.832Z,49.70
2023-04-07T07:21:19.886Z,49.80
2023-04-07T07:23:49.428Z,50.40
2023-04-07T07:26:18.538Z,49.80
2023-04-07T07:28:47.987Z,49.70
2023-04-07T07:31:17.417Z,49.60
2023-04-07T07:33:48.793Z,49.60
2023-04-07T07:36:19.748Z,49.30
2023-04-07T07:38:51.549Z,49.10
2023-04-07T07:41:21.167Z,49.20
2023-04-07T07:43:50.677Z,49.20
2023-04-07T07:46:19.440Z,49.00
2023-04-07T07:48:48.471Z,49.20
2023-04-07T07:51:19.356Z,49.30
2023-04-07T07:53:48.532Z,49.00
2023-04-07T07:56:17.592Z,49.20
2023-04-07T07:58:46.723Z,49.30
2023-04-07T08:01:15.649Z,49.50
2023-04-07T08:03:45.903Z,49.50
2023-04-07T08:06:14.910Z,49.60
2023-04-07T08:08:45.335Z,49.50
2023-04-07T08:11:14.137Z,49.50
2023-04-07T08:13:45.602Z,49.70
2023-04-07T08:16:14.928Z,49.60
2023-04-07T08:18:43.964Z,49.60
2023-04-07T08:21:13.040Z,49.40
2023-04-07T08:23:42.085Z,49.70
2023-04-07T08:26:12.271Z,49.70
2023-04-07T08:28:41.363Z,49.60
2023-04-07T08:31:10.359Z,49.90
2023-04-07T08:33:39.575Z,50.30
2023-04-07T08:36:08.862Z,50.00
2023-04-07T08:38:38.082Z,49.80
2023-04-07T08:41:13.912Z,49.80
2023-04-07T08:43:47.355Z,49.60
2023-04-07T08:46:19.089Z,49.70
2023-04-07T08:48:53.694Z,49.60
2023-04-07T08:51:31.779Z,49.20
2023-04-07T08:54:10.061Z,49.40
2023-04-07T08:56:41.885Z,49.40
2023-04-07T08:59:15.503Z,49.70
2023-04-07T09:01:44.652Z,49.30
2023-04-07T09:04:14.790Z,49.40
2023-04-07T09:06:44.577Z,49.50
2023-04-07T09:09:15.329Z,49.90
2023-04-07T09:11:45.860Z,49.70
2023-04-07T09:14:15.573Z,50.00
2023-04-07T09:16:44.502Z,49.80
2023-04-07T09:19:13.647Z,49.90
2023-04-07T09:21:53.601Z,49.70
2023-04-07T09:24:25.744Z,49.50
2023-04-07T09:27:12.377Z,49.60
2023-04-07T09:29:44.199Z,49.80
2023-04-07T09:32:13.984Z,50.10
2023-04-07T09:34:43.290Z,49.80
2023-04-07T09:37:24.039Z,49.30
2023-04-07T09:39:54.649Z,49.40
2023-04-07T09:42:26.716Z,49.70
2023-04-07T09:44:56.033Z,49.80
2023-04-07T09:47:29.585Z,49.70
2023-04-07T09:50:01.993Z,49.80
2023-04-07T09:52:53.434Z,49.30
2023-04-07T09:55:24.347Z,49.50
2023-04-07T09:57:56.505Z,49.90
2023-04-07T10:00:26.708Z,49.40
2023-04-07T10:02:56.442Z,49.60
2023-04-07T10:05:26.494Z,50.00
2023-04-07T10:07:55.918Z,49.40
2023-04-07T10:10:27.237Z,49.80
2023-04-07T10:12:59.135Z,49.90
2023-04-07T10:15:28.558Z,50.10
2023-04-07T10:17:58.217Z,49.90
2023-04-07T10:20:29.529Z,50.40
2023-04-07T10:23:10.922Z,50.40
2023-04-07T10:25:42.532Z,50.00
2023-04-07T10:28:15.601Z,50.00
2023-04-07T10:30:45.648Z,49.70
2023-04-07T10:33:14.483Z,50.00
2023-04-07T10:36:07.104Z,50.50
2023-04-07T10:38:36.386Z,49.10
2023-04-07T10:41:41.921Z,49.80
2023-04-07T10:44:53.081Z,50.10
2023-04-07T10:47:22.243Z,50.30
2023-04-07T10:50:21.263Z,50.40
2023-04-07T10:53:05.590Z,50.80
2023-04-07T10:55:38.027Z,50.60
2023-04-07T10:58:18.581Z,49.90
2023-04-07T11:01:22.105Z,50.60
2023-04-07T11:03:58.876Z,50.40
2023-04-07T11:06:28.142Z,50.20
2023-04-07T11:08:57.454Z,50.40
2023-04-07T11:11:41.771Z,50.60
2023-04-07T11:14:10.952Z,50.80
2023-04-07T11:16:45.540Z,50.20
2023-04-07T11:19:14.670Z,50.20
2023-04-07T11:21:43.398Z,50.40
2023-04-07T11:24:12.591Z,50.40
2023-04-07T11:26:43.781Z,50.30
2023-04-07T11:29:13.555Z,50.20
2023-04-07T11:31:49.506Z,50.00
2023-04-07T11:34:18.664Z,50.20
2023-04-07T11:36:47.447Z,50.10
2023-04-07T11:39:22.018Z,49.70
2023-04-07T11:41:52.124Z,50.10
2023-04-07T11:44:21.427Z,49.90
2023-04-07T11:46:59.675Z,49.60
2023-04-07T11:49:31.672Z,49.80
2023-04-07T11:52:03.197Z,49.80
2023-04-07T11:54:42.964Z,50.00
2023-04-07T11:57:12.973Z,49.90
2023-04-07T11:59:43.116Z,50.00
2023-04-07T12:02:14.497Z,50.30
2023-04-07T12:04:58.336Z,50.10
2023-04-07T12:07:28.398Z,50.30
2023-04-07T12:09:58.455Z,50.40
2023-04-07T12:12:29.235Z,50.60
2023-04-07T12:14:58.555Z,50.60
2023-04-07T12:17:29.064Z,50.80
2023-04-07T12:19:58.403Z,51.00
2023-04-07T12:22:27.199Z,51.00
2023-04-07T12:24:56.405Z,51.20
2023-04-07T12:27:39.687Z,51.60
2023-04-07T12:30:13.211Z,51.80
2023-04-07T12:32:43.822Z,51.20
2023-04-07T12:35:13.268Z,51.70
2023-04-07T12:37:42.048Z,51.70
2023-04-07T12:40:12.335Z,51.80
2023-04-07T12:42:41.496Z,51.60
2023-04-07T12:45:11.572Z,51.20
2023-04-07T12:47:40.701Z,51.20
2023-04-07T12:50:11.711Z,50.80
2023-04-07T12:52:41.124Z,51.00
2023-04-07T12:55:10.997Z,51.10
2023-04-07T12:57:39.823Z,50.80
2023-04-07T13:00:10.819Z,50.40
2023-04-07T13:02:39.814Z,49.60
2023-04-07T13:05:11.450Z,48.80
2023-04-07T13:07:40.325Z,48.80
2023-04-07T13:10:11.062Z,48.10
2023-04-07T13:12:41.403Z,48.20
2023-04-07T13:15:10.723Z,48.20
2023-04-07T13:17:39.613Z,48.60
2023-04-07T13:20:11.176Z,48.00
2023-04-07T13:22:49.207Z,47.70
2023-04-07T13:25:24.987Z,48.30
2023-04-07T13:27:53.789Z,47.20
2023-04-07T13:30:23.033Z,47.20
2023-04-07T13:32:52.184Z,47.40
2023-04-07T13:35:22.808Z,47.20
2023-04-07T13:37:51.657Z,47.40
2023-04-07T13:40:20.957Z,46.70
2023-04-07T13:42:49.692Z,46.70
2023-04-07T13:45:18.921Z,45.80
2023-04-07T13:47:47.681Z,45.80
2023-04-07T13:50:16.979Z,45.30
2023-04-07T13:52:47.260Z,45.60
2023-04-07T13:55:16.987Z,46.20
2023-04-07T13:57:45.872Z,46.60
2023-04-07T14:00:16.437Z,46.90
2023-04-07T14:02:47.751Z,47.00
2023-04-07T14:05:17.193Z,45.40
2023-04-07T14:07:48.125Z,45.40
2023-04-07T14:10:17.629Z,44.70
2023-04-07T14:12:46.674Z,44.30
2023-04-07T14:15:18.170Z,44.50
2023-04-07T14:17:47.295Z,44.50
2023-04-07T14:20:16.376Z,45.10
2023-04-07T14:22:46.615Z,44.60
2023-04-07T14:25:15.797Z,44.70
2023-04-07T14:27:44.592Z,44.20
2023-04-07T14:30:14.408Z,44.60
2023-04-07T14:32:43.321Z,44.40
2023-04-07T14:35:12.486Z,44.30
2023-04-07T14:37:41.413Z,44.10
2023-04-07T14:40:12.981Z,44.50
2023-04-07T14:42:41.975Z,44.40
2023-04-07T14:45:12.847Z,43.90
2023-04-07T14:47:41.710Z,44.40
2023-04-07T14:50:11.858Z,44.10
2023-04-07T14:52:40.841Z,44.60
2023-04-07T14:55:11.627Z,44.60
2023-04-07T14:57:40.469Z,44.70
2023-04-07T15:00:11.271Z,44.90
2023-04-07T15:02:40.542Z,44.30
2023-04-07T15:05:10.624Z,44.40
2023-04-07T15:07:39.554Z,44.40
2023-04-07T15:10:09.773Z,43.90
2023-04-07T15:12:39.874Z,43.50
2023-04-07T15:15:09.618Z,44.20
2023-04-07T15:17:43.807Z,43.80
2023-04-07T15:20:13.968Z,43.70
2023-04-07T15:22:42.782Z,44.20
2023-04-07T15:25:11.904Z,44.50
2023-04-07T15:27:42.048Z,43.90
2023-04-07T15:30:12.253Z,44.20
2023-04-07T15:32:41.314Z,44.10
2023-04-07T15:35:10.831Z,44.10
2023-04-07T15:37:39.685Z,42.60
2023-04-07T15:40:10.375Z,42.30
2023-04-07T15:42:41.691Z,41.90
2023-04-07T15:45:13.276Z,41.30
2023-04-07T15:47:42.225Z,41.40
2023-04-07T15:50:12.390Z,41.10
2023-04-07T15:52:41.204Z,41.10
2023-04-07T15:55:11.159Z,40.80
2023-04-07T15:57:40.046Z,40.50
2023-04-07T16:00:10.719Z,40.70
2023-04-07T16:02:40.964Z,40.80
2023-04-07T16:05:10.637Z,41.00
2023-04-07T16:07:39.445Z,40.30
2023-04-07T16:10:11.650Z,40.10
2023-04-07T16:12:40.722Z,40.20
2023-04-07T16:15:11.607Z,39.80
2023-04-07T16:17:44.524Z,39.40
2023-04-07T16:20:15.869Z,39.50
2023-04-07T16:22:47.982Z,39.30
2023-04-07T16:25:18.180Z,38.90
2023-04-07T16:27:47.271Z,38.60
2023-04-07T16:30:18.595Z,38.90
2023-04-07T16:32:49.210Z,38.90
2023-04-07T16:35:18.883Z,38.20
2023-04-07T16:37:49.512Z,38.00
2023-04-07T16:40:18.748Z,38.00
2023-04-07T16:42:48.711Z,37.20
2023-04-07T16:45:18.053Z,37.60
2023-04-07T16:47:48.274Z,37.50
2023-04-07T16:50:17.426Z,37.30
2023-04-07T16:52:46.967Z,37.50
2023-04-07T16:55:16.233Z,37.60
2023-04-07T16:57:44.990Z,37.60
2023-04-07T17:00:15.239Z,37.20
2023-04-07T17:02:44.378Z,37.20
2023-04-07T17:05:15.152Z,36.70
2023-04-07T17:07:44.025Z,37.00
2023-04-07T17:10:14.632Z,37.30
2023-04-07T17:12:43.678Z,37.50
2023-04-07T17:15:12.934Z,37.60
2023-04-07T17:17:41.883Z,37.80
2023-04-07T17:20:13.396Z,37.70
2023-04-07T17:22:44.195Z,37.00
2023-04-07T17:25:13.365Z,36.90
2023-04-07T17:27:42.153Z,37.20
2023-04-07T17:30:12.627Z,37.20
2023-04-07T17:32:41.625Z,37.40
2023-04-07T17:35:11.264Z,37.20
2023-04-07T17:37:40.183Z,37.40
2023-04-07T17:40:12.098Z,37.20
2023-04-07T17:42:41.309Z,37.40
2023-04-07T17:45:12.027Z,37.40
2023-04-07T17:47:40.926Z,37.50
2023-04-07T17:50:11.642Z,37.70
2023-04-07T17:52:40.503Z,37.70
2023-04-07T17:55:12.534Z,37.70
2023-04-07T17:57:42.773Z,37.80
2023-04-07T18:00:13.214Z,37.70
2023-04-07T18:02:42.335Z,37.80
2023-04-07T18:05:12.537Z,37.90
2023-04-07T18:07:41.350Z,37.80
2023-04-07T18:10:12.428Z,37.90
2023-04-07T18:12:41.885Z,38.00
2023-04-07T18:15:11.765Z,38.10
2023-04-07T18:17:41.234Z,38.20
2023-04-07T18:20:12.121Z,38.40
2023-04-07T18:22:40.985Z,38.50
2023-04-07T18:25:12.437Z,38.70
2023-04-07T18:27:41.560Z,38.70
2023-04-07T18:30:11.469Z,38.90
2023-04-07T18:32:40.398Z,38.90
2023-04-07T18:35:10.304Z,39.00
2023-04-07T18:37:39.130Z,39.00
2023-04-07T18:40:11.620Z,39.10
2023-04-07T18:42:40.445Z,39.10
2023-04-07T18:45:10.548Z,39.30
2023-04-07T18:47:39.445Z,39.10
2023-04-07T18:50:09.992Z,39.20
2023-04-07T18:52:38.820Z,39.10
2023-04-07T18:55:10.947Z,39.00
2023-04-07T18:57:41.426Z,39.10
2023-04-07T19:00:11.986Z,39.00
2023-04-07T19:02:44.631Z,39.10
2023-04-07T19:05:14.260Z,39.20
2023-04-07T19:07:43.066Z,39.20
2023-04-07T19:10:12.246Z,39.30
2023-04-07T19:12:42.344Z,39.20
2023-04-07T19:15:12.605Z,39.30
2023-04-07T19:17:41.458Z,39.40
2023-04-07T19:20:11.242Z,39.20
2023-04-07T19:22:40.149Z,39.30
2023-04-07T19:25:10.708Z,39.30
2023-04-07T19:27:41.068Z,39.30
2023-04-07T19:30:11.485Z,39.30
2023-04-07T19:32:40.401Z,39.10
2023-04-07T19:35:11.282Z,39.20
2023-04-07T19:37:41.085Z,39.10
2023-04-07T19:40:11.593Z,39.10
2023-04-07T19:42:42.784Z,39.10
2023-04-07T19:45:12.846Z,38.80
2023-04-07T19:47:43.517Z,39.00
2023-04-07T19:50:14.429Z,39.20
2023-04-07T19:52:45.277Z,38.80
2023-04-07T19:55:15.649Z,38.80
2023-04-07T19:57:45.787Z,38.80
2023-04-07T20:00:16.180Z,38.80
2023-04-07T20:02:51.236Z,38.90
2023-04-07T20:05:20.893Z,38.90
2023-04-07T20:07:49.709Z,38.40
2023-04-07T20:10:19.037Z,37.90
2023-04-07T20:12:49.143Z,37.90
2023-04-07T20:15:18.403Z,37.70
2023-04-07T20:17:48.048Z,37.90
2023-04-07T20:20:17.890Z,38.00
2023-04-07T20:22:46.741Z,38.10
2023-04-07T20:25:16.101Z,38.10
2023-04-07T20:27:49.056Z,37.90
2023-04-07T20:30:19.888Z,38.50
2023-04-07T20:32:48.772Z,37.70
2023-04-07T20:35:18.072Z,37.60
2023-04-07T20:37:46.863Z,37.50
2023-04-07T20:40:16.144Z,37.60
2023-04-07T20:42:46.157Z,37.50
2023-04-07T20:45:15.301Z,37.60
2023-04-07T20:47:45.563Z,37.50
2023-04-07T20:50:14.723Z,37.40
2023-04-07T20:52:43.862Z,37.00
2023-04-07T20:55:13.447Z,37.20
2023-04-07T20:57:43.616Z,37.30
2023-04-07T21:00:13.315Z,37.10
2023-04-07T21:02:42.840Z,37.10
2023-04-07T21:05:13.530Z,36.90
2023-04-07T21:07:42.378Z,36.80
2023-04-07T21:10:12.325Z,37.00
2023-04-07T21:12:41.734Z,37.20
2023-04-07T21:15:11.883Z,37.30
2023-04-07T21:17:40.920Z,36.90
2023-04-07T21:20:13.093Z,37.20
2023-04-07T21:22:41.909Z,37.30
2023-04-07T21:25:11.510Z,37.20
2023-04-07T21:27:40.608Z,37.30
2023-04-07T21:30:11.230Z,37.60
2023-04-07T21:32:40.065Z,37.60
2023-04-07T21:35:10.466Z,37.60
2023-04-07T21:37:41.016Z,37.60
2023-04-07T21:40:11.434Z,37.40
2023-04-07T21:42:40.915Z,37.50
2023-04-07T21:45:12.193Z,37.30
2023-04-07T21:47:41.045Z,37.30
2023-04-07T21:50:11.267Z,37.40
2023-04-07T21:52:42.696Z,37.40
2023-04-07T21:55:12.194Z,37.30
2023-04-07T21:57:40.994Z,37.20
2023-04-07T22:00:12.755Z,37.00
2023-04-07T22:02:45.589Z,37.20
2023-04-07T22:05:16.030Z,36.90
2023-04-07T22:07:46.873Z,37.00
2023-04-07T22:10:16.547Z,36.90
2023-04-07T22:12:45.686Z,36.90
2023-04-07T22:15:14.786Z,36.80
2023-04-07T22:17:43.612Z,36.60
2023-04-07T22:20:13.465Z,36.70
2023-04-07T22:22:43.169Z,36.50
2023-04-07T22:25:13.691Z,36.50
2023-04-07T22:27:42.490Z,36.50
2023-04-07T22:30:11.916Z,36.70
2023-04-07T22:32:41.524Z,36.70
2023-04-07T22:35:11.149Z,36.50
2023-04-07T22:37:40.072Z,36.60
2023-04-07T22:40:10.799Z,36.70
2023-04-07T22:42:41.185Z,36.70
2023-04-07T22:45:11.310Z,36.60
2023-04-07T22:47:40.858Z,36.60
2023-04-07T22:50:11.756Z,36.50
2023-04-07T22:52:40.596Z,36.40
2023-04-07T22:55:11.077Z,36.40
2023-04-07T22:57:41.239Z,36.50
2023-04-07T23:00:11.635Z,36.60
2023-04-07T23:02:40.593Z,36.40
2023-04-07T23:05:11.240Z,36.40
2023-04-07T23:07:40.429Z,36.30
2023-04-07T23:10:10.518Z,36.50
2023-04-07T23:12:40.740Z,36.40
2023-04-07T23:15:11.000Z,36.20
2023-04-07T23:17:40.047Z,36.20
2023-04-07T23:20:10.977Z,36.20
2023-04-07T23:22:39.804Z,36.40
2023-04-07T23:25:10.381Z,36.10
2023-04-07T23:27:40.658Z,36.40
2023-04-07T23:30:11.279Z,36.30
2023-04-07T23:32:40.126Z,36.30
2023-04-07T23:35:10.614Z,36.20
2023-04-07T23:37:39.585Z,36.30
2023-04-07T23:40:10.978Z,36.40
2023-04-07T23:42:41.115Z,36.30
2023-04-07T23:45:11.255Z,36.40
2023-04-07T23:47:40.131Z,36.20
2023-04-07T23:50:10.394Z,36.20
2023-04-07T23:52:39.184Z,36.10
2023-04-07T23:55:09.499Z,36.10
2023-04-07T23:57:38.334Z,36.30
